Time;durP1;ratioP1;P1;durP2;ratioP2;P2;SDS_P1;SDS_P2;PMS_P1;PMS_P2;Temp;Humidity;BMP_temperature;BMP_pressure;BME280_temperature;BME280_humidity;BME280_pressure;Samples;Min_cycle;Max_cycle;Signal;HPM_P1;HPM_P2
2022/02/06 00:01:11;;;;;;;9.13;3.00;;;3.30;99.90;;;;;;5042014;28;21044;-63
2022/02/06 00:03:40;;;;;;;4.23;3.50;;;3.30;99.90;;;;;;5043277;28;20494;-62
2022/02/06 00:06:08;;;;;;;5.40;2.60;;;3.40;99.90;;;;;;5051031;28;20570;-62
2022/02/06 00:08:37;;;;;;;5.40;2.23;;;3.40;99.90;;;;;;5051443;28;20448;-63
2022/02/06 00:11:05;;;;;;;4.20;2.33;;;3.50;99.90;;;;;;5047857;28;20453;-62
2022/02/06 00:13:32;;;;;;;5.30;2.43;;;3.40;99.90;;;;;;5048485;28;20609;-63
2022/02/06 00:15:59;;;;;;;3.93;2.80;;;3.50;99.90;;;;;;5048301;28;21075;-63
2022/02/06 00:18:26;;;;;;;3.73;2.80;;;3.50;99.90;;;;;;5048504;28;20444;-63
2022/02/06 00:20:57;;;;;;;4.10;2.93;;;3.50;99.90;;;;;;5047528;28;20531;-64
2022/02/06 00:23:27;;;;;;;4.40;2.60;;;3.50;99.90;;;;;;5048129;28;20464;-62
2022/02/06 00:26:00;;;;;;;6.63;2.80;;;3.40;99.90;;;;;;5048542;28;20494;-63
2022/02/06 00:28:38;;;;;;;5.50;2.70;;;3.50;99.90;;;;;;5048635;28;20466;-62
2022/02/06 00:31:14;;;;;;;7.90;2.47;;;3.50;99.90;;;;;;5047821;28;20456;-64
2022/02/06 00:33:50;;;;;;;5.43;2.77;;;3.50;99.90;;;;;;5047478;28;21072;-63
2022/02/06 00:39:05;;;;;;;4.63;2.30;;;3.60;99.90;;;;;;5048600;28;20431;-63
2022/02/06 00:41:33;;;;;;;4.80;2.20;;;3.60;99.90;;;;;;5048158;28;20452;-63
2022/02/06 00:44:02;;;;;;;5.87;2.27;;;3.70;99.90;;;;;;5048248;28;20893;-63
2022/02/06 00:46:30;;;;;;;8.50;2.33;;;3.70;99.90;;;;;;5048542;28;20930;-63
2022/02/06 00:48:59;;;;;;;5.07;2.27;;;3.70;99.90;;;;;;5047683;28;20436;-64
2022/02/06 00:51:35;;;;;;;3.87;2.27;;;3.70;99.90;;;;;;5047917;28;20551;-63
2022/02/06 00:54:02;;;;;;;5.23;2.20;;;3.80;99.90;;;;;;5048634;28;21261;-63
2022/02/06 00:56:30;;;;;;;5.47;2.60;;;3.80;99.90;;;;;;5049633;28;20461;-63
2022/02/06 00:58:57;;;;;;;7.63;2.40;;;3.80;99.90;;;;;;5049311;28;20505;-64
2022/02/06 01:01:24;;;;;;;4.67;2.40;;;3.80;99.90;;;;;;5048380;28;20539;-63
2022/02/06 01:03:53;;;;;;;5.50;2.33;;;3.80;99.90;;;;;;5048264;28;20476;-64
2022/02/06 01:06:20;;;;;;;5.03;2.30;;;3.80;99.90;;;;;;5049529;28;20826;-64
2022/02/06 01:08:48;;;;;;;6.40;2.50;;;3.80;99.90;;;;;;5049015;28;20832;-64
2022/02/06 01:11:15;;;;;;;5.50;2.40;;;3.90;99.90;;;;;;5048453;28;20471;-64
2022/02/06 01:13:53;;;;;;;3.70;1.97;;;3.90;99.90;;;;;;5048624;28;20480;-64
2022/02/06 01:16:24;;;;;;;6.13;2.10;;;3.90;99.90;;;;;;5049328;28;20456;-63
2022/02/06 01:18:56;;;;;;;6.17;2.37;;;3.90;99.90;;;;;;5048262;28;20450;-64
2022/02/06 01:21:35;;;;;;;6.53;2.13;;;3.90;99.90;;;;;;5047752;28;20938;-64
2022/02/06 01:24:08;;;;;;;5.63;2.30;;;3.90;99.90;;;;;;5048493;28;21429;-64
2022/02/06 01:26:40;;;;;;;6.80;2.93;;;3.80;99.90;;;;;;5048747;28;20807;-62
2022/02/06 01:29:15;;;;;;;5.37;2.10;;;3.90;99.90;;;;;;5048141;28;21108;-63
2022/02/06 01:31:51;;;;;;;5.70;2.30;;;3.90;99.90;;;;;;5048496;28;20805;-64
2022/02/06 01:34:22;;;;;;;6.70;2.57;;;3.90;99.90;;;;;;5048305;28;20463;-63
2022/02/06 01:37:02;;;;;;;3.80;1.90;;;3.90;99.90;;;;;;5041117;28;20455;-64
2022/02/06 01:39:46;;;;;;;4.17;2.00;;;3.90;99.90;;;;;;5045962;28;20448;-64
2022/02/06 01:42:23;;;;;;;6.17;2.43;;;3.90;99.90;;;;;;5041922;28;20460;-64
2022/02/06 01:45:00;;;;;;;4.80;2.27;;;4.00;99.90;;;;;;5046833;28;20483;-64
2022/02/06 02:01:22;;;;;;;6.83;1.73;;;4.00;99.90;;;;;;5046526;28;20477;-64
2022/02/06 02:03:56;;;;;;;2.77;1.43;;;4.00;99.90;;;;;;5046011;28;20471;-64
2022/02/06 02:06:54;;;;;;;3.30;1.70;;;4.00;99.90;;;;;;5047427;28;20969;-64
2022/02/06 02:12:30;;;;;;;3.20;1.93;;;4.10;99.90;;;;;;5030333;28;21025;-64
2022/02/06 02:15:33;;;;;;;4.90;2.20;;;4.10;99.90;;;;;;5047366;28;20563;-62
2022/02/06 02:18:14;;;;;;;8.13;2.20;;;4.10;99.90;;;;;;5047874;28;20443;-64
2022/02/06 02:20:59;;;;;;;5.30;2.03;;;4.10;99.90;;;;;;5046509;28;20439;-64
2022/02/06 02:43:03;;;;;;;3.40;1.67;;;4.40;99.90;;;;;;5042179;28;20482;-64
2022/02/06 02:45:50;;;;;;;3.13;1.63;;;4.40;99.90;;;;;;5048071;28;20495;-64
2022/02/06 02:48:18;;;;;;;3.83;1.80;;;4.40;99.90;;;;;;5044988;28;20460;-64
2022/02/06 02:50:52;;;;;;;4.30;1.60;;;4.50;99.90;;;;;;5048217;28;20502;-65
2022/02/06 02:53:26;;;;;;;3.63;1.60;;;4.50;99.90;;;;;;5048844;28;20596;-64
2022/02/06 02:56:03;;;;;;;3.90;1.70;;;4.60;99.90;;;;;;5049322;28;20466;-65
2022/02/06 02:58:44;;;;;;;6.87;2.90;;;4.70;99.90;;;;;;5049238;28;20451;-64
2022/02/06 03:01:20;;;;;;;3.07;1.33;;;4.80;99.90;;;;;;5048522;28;20448;-64
2022/02/06 03:03:47;;;;;;;3.17;2.07;;;4.80;99.90;;;;;;5048739;28;20475;-64
2022/02/06 03:06:14;;;;;;;5.07;2.10;;;4.90;99.90;;;;;;5049108;28;20864;-65
2022/02/06 03:08:43;;;;;;;5.60;1.80;;;4.80;99.90;;;;;;5048908;28;21084;-64
2022/02/06 03:11:11;;;;;;;3.60;1.63;;;4.80;99.90;;;;;;5048069;28;20448;-64
2022/02/06 03:13:45;;;;;;;3.57;1.50;;;4.90;99.90;;;;;;5048658;28;20530;-65
2022/02/06 03:16:22;;;;;;;5.80;1.80;;;4.90;99.90;;;;;;5049033;28;21208;-64
2022/02/06 03:18:57;;;;;;;5.20;2.20;;;4.90;99.90;;;;;;5049104;28;20444;-64
2022/02/06 03:21:27;;;;;;;3.90;1.73;;;4.90;99.90;;;;;;5048015;28;21035;-65
2022/02/06 03:23:58;;;;;;;3.33;1.50;;;5.00;99.90;;;;;;5048582;28;20466;-65
2022/02/06 03:26:27;;;;;;;7.03;1.53;;;5.00;99.90;;;;;;5048839;28;20541;-64
2022/02/06 03:28:55;;;;;;;4.07;1.37;;;5.00;99.90;;;;;;5049122;28;20455;-63
2022/02/06 03:31:22;;;;;;;4.10;1.23;;;4.90;99.90;;;;;;5048136;28;20467;-63
2022/02/06 03:33:50;;;;;;;3.70;1.90;;;5.00;99.90;;;;;;5048505;28;20475;-64
2022/02/06 03:36:18;;;;;;;3.27;1.40;;;5.00;99.90;;;;;;5049109;28;20448;-64
2022/02/06 03:38:47;;;;;;;4.20;1.63;;;5.00;99.90;;;;;;5049252;28;20470;-64
2022/02/06 03:41:16;;;;;;;6.80;2.67;;;4.90;99.90;;;;;;5048315;28;20455;-64
2022/02/06 03:43:52;;;;;;;3.87;1.63;;;5.00;99.90;;;;;;5048719;28;20464;-64
2022/02/06 03:46:25;;;;;;;7.33;2.00;;;5.00;99.90;;;;;;5051671;28;20479;-64
2022/02/06 03:48:55;;;;;;;4.87;1.80;;;5.00;99.90;;;;;;5052499;28;21249;-64
2022/02/06 03:51:30;;;;;;;3.30;1.53;;;4.90;99.90;;;;;;5052096;28;20454;-62
2022/02/06 03:53:56;;;;;;;3.73;1.80;;;4.90;99.90;;;;;;5052404;28;20475;-64
2022/02/06 03:56:26;;;;;;;3.73;1.50;;;4.90;99.90;;;;;;5052399;28;20455;-64
2022/02/06 03:58:53;;;;;;;2.70;1.37;;;4.90;99.90;;;;;;5052501;28;20451;-64
2022/02/06 04:01:20;;;;;;;3.23;1.43;;;4.90;99.90;;;;;;5051605;28;20807;-64
2022/02/06 04:03:47;;;;;;;10.77;2.10;;;4.90;99.90;;;;;;5052051;28;20463;-64
2022/02/06 04:06:14;;;;;;;3.80;1.80;;;4.90;99.90;;;;;;5052382;28;20489;-64
2022/02/06 04:08:42;;;;;;;6.20;2.10;;;4.90;99.90;;;;;;5052122;28;20444;-64
2022/02/06 04:11:13;;;;;;;4.77;1.40;;;5.00;99.90;;;;;;5051348;28;20537;-64
2022/02/06 04:13:53;;;;;;;3.30;1.23;;;4.90;99.90;;;;;;5051526;28;20494;-65
2022/02/06 04:16:26;;;;;;;3.37;1.23;;;4.90;99.90;;;;;;5052319;28;20448;-64
2022/02/06 04:19:05;;;;;;;3.10;1.13;;;4.90;99.90;;;;;;5052018;28;20452;-64
2022/02/06 04:21:33;;;;;;;3.80;2.50;;;4.90;99.90;;;;;;5051877;28;20458;-64
2022/02/06 04:23:59;;;;;;;4.80;1.83;;;4.80;99.90;;;;;;5051254;28;20478;-64
2022/02/06 04:26:26;;;;;;;4.87;1.70;;;4.80;99.90;;;;;;5052410;28;20472;-64
2022/02/06 04:28:55;;;;;;;4.30;1.93;;;4.80;99.90;;;;;;5051883;28;20462;-64
2022/02/06 04:31:22;;;;;;;7.77;1.77;;;4.80;99.90;;;;;;5051642;28;20457;-64
2022/02/06 04:33:50;;;;;;;4.43;1.50;;;4.90;99.90;;;;;;5051754;28;20474;-64
2022/02/06 04:36:19;;;;;;;5.73;1.90;;;5.00;99.90;;;;;;5051919;28;20501;-64
2022/02/06 04:38:56;;;;;;;3.10;1.43;;;5.10;99.90;;;;;;5051659;28;20505;-64
2022/02/06 04:41:44;;;;;;;3.40;1.00;;;5.20;99.90;;;;;;5051689;28;20476;-64
2022/02/06 04:47:53;;;;;;;4.53;1.30;;;5.40;99.90;;;;;;5051772;28;20425;-63
2022/02/06 05:15:20;;;;;;;3.43;1.40;;;5.70;99.90;;;;;;5050971;28;20515;-64
2022/02/06 05:18:16;;;;;;;2.93;1.50;;;5.70;99.90;;;;;;5050801;28;20452;-64
2022/02/06 05:26:44;;;;;;;6.97;1.83;;;5.70;99.90;;;;;;5032487;28;20793;-64
2022/02/06 05:29:22;;;;;;;7.10;1.50;;;5.70;99.90;;;;;;5049530;28;20463;-63
2022/02/06 05:32:01;;;;;;;5.43;2.43;;;5.70;99.90;;;;;;5050989;28;21064;-64
2022/02/06 05:34:29;;;;;;;5.33;2.00;;;5.60;99.90;;;;;;5051056;28;20475;-63
2022/02/06 05:36:56;;;;;;;4.43;1.83;;;5.60;99.90;;;;;;5050844;28;20440;-64
2022/02/06 05:39:22;;;;;;;5.27;1.90;;;5.60;99.90;;;;;;5050456;28;20455;-64
2022/02/06 05:41:49;;;;;;;3.77;1.50;;;5.60;99.90;;;;;;5050687;28;20475;-64
2022/02/06 05:44:16;;;;;;;2.80;1.10;;;5.60;99.90;;;;;;5050204;28;20559;-62
2022/02/06 05:46:43;;;;;;;6.43;2.10;;;5.60;99.90;;;;;;5050288;28;20570;-63
2022/02/06 05:49:11;;;;;;;3.70;1.60;;;5.60;99.90;;;;;;5049712;28;20832;-63
2022/02/06 05:51:40;;;;;;;6.93;2.10;;;5.60;99.90;;;;;;5050043;28;20870;-63
2022/02/06 05:54:07;;;;;;;8.83;2.10;;;5.60;99.90;;;;;;5049513;28;20476;-63
2022/02/06 05:56:35;;;;;;;2.87;1.57;;;5.60;99.90;;;;;;5049854;28;20450;-63
2022/02/06 05:59:03;;;;;;;6.17;1.90;;;5.70;99.90;;;;;;5049935;28;20448;-63
2022/02/06 06:01:29;;;;;;;3.90;1.63;;;5.70;99.90;;;;;;5049789;28;20452;-64
2022/02/06 06:03:56;;;;;;;2.93;1.60;;;5.70;99.90;;;;;;5049668;28;21024;-64
2022/02/06 06:06:24;;;;;;;5.30;2.07;;;5.80;99.90;;;;;;5050190;28;20586;-64
2022/02/06 06:08:52;;;;;;;6.37;1.80;;;5.80;99.90;;;;;;5048946;28;20455;-64
2022/02/06 06:11:19;;;;;;;4.63;1.43;;;5.80;99.90;;;;;;5048643;28;20851;-64
2022/02/06 06:13:46;;;;;;;4.60;1.90;;;5.80;99.90;;;;;;5049570;28;20475;-63
2022/02/06 06:16:12;;;;;;;7.13;2.10;;;5.80;99.90;;;;;;5050343;28;20447;-64
2022/02/06 06:18:39;;;;;;;3.70;1.60;;;5.80;99.90;;;;;;5049793;28;20456;-63
2022/02/06 06:21:06;;;;;;;4.77;1.40;;;5.80;99.90;;;;;;5049264;28;20472;-63
2022/02/06 06:23:33;;;;;;;3.23;1.40;;;5.80;99.90;;;;;;5049760;28;20542;-64
2022/02/06 06:26:01;;;;;;;3.50;3.17;;;5.80;99.90;;;;;;5049673;28;20574;-65
2022/02/06 06:28:28;;;;;;;4.10;1.73;;;5.80;99.90;;;;;;5049992;28;20460;-64
2022/02/06 06:30:55;;;;;;;4.90;1.87;;;5.80;99.90;;;;;;5048437;28;20464;-64
2022/02/06 06:33:22;;;;;;;5.80;2.80;;;5.80;99.90;;;;;;5049520;28;20460;-64
2022/02/06 06:35:51;;;;;;;5.83;1.90;;;5.80;99.90;;;;;;5049657;28;20452;-64
2022/02/06 06:38:17;;;;;;;7.50;1.97;;;5.90;99.90;;;;;;5049592;28;20447;-64
2022/02/06 06:40:44;;;;;;;6.30;1.40;;;5.90;99.90;;;;;;5048609;28;20459;-64
2022/02/06 06:43:12;;;;;;;3.07;1.47;;;5.90;99.90;;;;;;5049121;28;20543;-63
2022/02/06 06:45:39;;;;;;;4.93;1.73;;;5.90;99.90;;;;;;5049257;28;20482;-64
2022/02/06 06:48:06;;;;;;;3.07;1.73;;;5.90;99.90;;;;;;5049333;28;20486;-64
2022/02/06 06:50:34;;;;;;;4.00;1.80;;;5.80;99.90;;;;;;5048272;28;20448;-64
2022/02/06 06:53:01;;;;;;;4.90;1.90;;;5.90;99.90;;;;;;5048669;28;20455;-63
2022/02/06 06:55:30;;;;;;;8.67;2.10;;;5.90;99.90;;;;;;5049176;28;20452;-64
2022/02/06 06:58:06;;;;;;;5.13;2.10;;;5.90;99.90;;;;;;5049267;28;20485;-64
2022/02/06 07:00:43;;;;;;;3.33;1.50;;;5.90;99.90;;;;;;5048258;28;20455;-64
2022/02/06 07:03:09;;;;;;;5.07;1.40;;;5.90;99.90;;;;;;5048582;28;20963;-64
2022/02/06 07:05:36;;;;;;;12.17;2.23;;;5.90;99.90;;;;;;5049203;28;20484;-62
2022/02/06 07:08:03;;;;;;;5.30;1.93;;;5.90;99.90;;;;;;5049084;28;20455;-64
2022/02/06 07:10:30;;;;;;;4.40;1.83;;;6.00;99.90;;;;;;5048117;28;20808;-63
2022/02/06 07:12:57;;;;;;;5.73;1.87;;;6.00;99.90;;;;;;5048163;28;20551;-64
2022/02/06 07:15:24;;;;;;;4.10;1.83;;;6.00;99.90;;;;;;5048699;28;20523;-63
2022/02/06 07:17:52;;;;;;;4.23;1.43;;;6.10;99.90;;;;;;5048657;28;20444;-64
2022/02/06 07:20:19;;;;;;;7.03;1.80;;;6.10;99.90;;;;;;5049143;28;20448;-64
2022/02/06 07:22:46;;;;;;;5.80;2.00;;;6.10;99.90;;;;;;5052016;28;20462;-63
2022/02/06 07:25:13;;;;;;;4.30;1.60;;;6.20;99.90;;;;;;5052535;28;20482;-63
2022/02/06 07:27:45;;;;;;;4.80;1.73;;;6.20;99.90;;;;;;5052395;28;20490;-63
2022/02/06 07:30:12;;;;;;;3.00;1.60;;;6.20;99.90;;;;;;5051370;28;20451;-63
2022/02/06 07:32:39;;;;;;;5.03;1.53;;;6.30;99.90;;;;;;5052202;28;20451;-63
2022/02/06 07:35:10;;;;;;;6.73;2.47;;;6.30;99.90;;;;;;5052126;28;21039;-64
2022/02/06 07:37:52;;;;;;;9.53;2.33;;;6.30;99.90;;;;;;5052409;28;20450;-64
2022/02/06 07:40:20;;;;;;;3.30;1.30;;;6.30;99.90;;;;;;5051060;28;20436;-65
2022/02/06 07:42:50;;;;;;;2.73;1.30;;;6.40;99.90;;;;;;5051678;28;20782;-64
2022/02/06 07:45:20;;;;;;;4.73;1.50;;;6.40;99.90;;;;;;5052441;28;20498;-64
2022/02/06 07:47:47;;;;;;;4.90;1.53;;;6.50;99.90;;;;;;5051875;28;20482;-65
2022/02/06 07:50:17;;;;;;;9.30;1.77;;;6.50;99.90;;;;;;5051164;28;20501;-65
2022/02/06 07:52:50;;;;;;;6.43;1.80;;;6.50;99.90;;;;;;5051514;28;20451;-65
2022/02/06 07:55:21;;;;;;;6.33;1.60;;;6.60;99.90;;;;;;5051640;28;20525;-65
2022/02/06 07:57:48;;;;;;;6.70;1.30;;;6.60;99.90;;;;;;5052363;28;20815;-64
2022/02/06 08:00:16;;;;;;;11.57;2.20;;;6.60;99.90;;;;;;5051155;28;20444;-65
2022/02/06 08:02:43;;;;;;;4.90;1.73;;;6.60;99.90;;;;;;5051416;28;20455;-64
2022/02/06 08:05:10;;;;;;;4.90;1.90;;;6.60;99.90;;;;;;5051725;28;20467;-65
2022/02/06 08:07:39;;;;;;;4.63;1.57;;;6.70;99.90;;;;;;5051512;28;20488;-64
2022/02/06 08:10:07;;;;;;;5.17;1.40;;;6.70;99.90;;;;;;5050891;28;20562;-65
2022/02/06 08:12:40;;;;;;;6.03;1.73;;;6.80;99.90;;;;;;5051459;28;20455;-64
2022/02/06 08:15:08;;;;;;;4.63;1.40;;;6.80;99.90;;;;;;5051905;28;20472;-68
2022/02/06 08:17:37;;;;;;;2.73;1.40;;;6.80;99.90;;;;;;5051478;28;20439;-65
2022/02/06 08:20:06;;;;;;;4.33;1.93;;;6.90;99.90;;;;;;5050750;28;20958;-64
2022/02/06 08:22:33;;;;;;;4.80;2.23;;;6.90;99.90;;;;;;5050824;28;20451;-64
2022/02/06 08:25:02;;;;;;;2.37;1.30;;;6.90;99.90;;;;;;5050965;28;20478;-64
2022/02/06 08:27:29;;;;;;;7.43;2.07;;;6.90;99.90;;;;;;5049944;28;20491;-64
2022/02/06 08:29:58;;;;;;;3.70;1.50;;;6.90;99.90;;;;;;5050149;28;20452;-64
2022/02/06 08:32:26;;;;;;;5.50;1.50;;;6.90;99.90;;;;;;5050305;28;20865;-65
2022/02/06 08:34:53;;;;;;;4.40;1.20;;;7.00;99.90;;;;;;5051190;28;20471;-65
2022/02/06 08:37:20;;;;;;;4.37;1.73;;;7.10;99.90;;;;;;5051188;28;20451;-62
2022/02/06 08:39:48;;;;;;;2.53;1.37;;;7.10;99.90;;;;;;5050396;28;20440;-65
2022/02/06 08:42:17;;;;;;;7.07;1.53;;;7.20;99.90;;;;;;5051086;28;20550;-66
2022/02/06 08:44:45;;;;;;;4.70;1.70;;;7.30;99.90;;;;;;5049160;28;20470;-66
2022/02/06 08:47:14;;;;;;;5.23;2.00;;;7.30;99.90;;;;;;5051028;28;20484;-63
2022/02/06 08:49:42;;;;;;;7.50;2.40;;;7.40;99.90;;;;;;5050082;28;20450;-64
2022/02/06 08:52:11;;;;;;;5.50;2.03;;;7.50;99.90;;;;;;5051289;28;20440;-64
2022/02/06 08:54:38;;;;;;;6.90;1.50;;;7.50;99.90;;;;;;5050788;28;20472;-63
2022/02/06 08:57:13;;;;;;;4.27;1.73;;;7.60;99.90;;;;;;5051264;28;20887;-64
2022/02/06 08:59:42;;;;;;;3.40;1.30;;;7.70;99.90;;;;;;5050687;28;20428;-64
2022/02/06 09:02:09;;;;;;;4.90;1.90;;;7.60;99.90;;;;;;5051475;28;20447;-63
2022/02/06 09:04:36;;;;;;;5.80;2.03;;;7.60;99.90;;;;;;5050697;28;20537;-64
2022/02/06 09:07:04;;;;;;;2.70;1.10;;;7.60;99.90;;;;;;5050930;28;20494;-64
2022/02/06 09:09:32;;;;;;;5.10;1.53;;;7.60;99.90;;;;;;5050311;28;20527;-64
2022/02/06 09:12:00;;;;;;;6.33;1.83;;;7.60;99.90;;;;;;5050223;28;20451;-63
2022/02/06 09:14:27;;;;;;;4.40;1.60;;;7.70;99.90;;;;;;5049549;28;20468;-64
2022/02/06 09:16:56;;;;;;;4.43;1.20;;;7.70;99.90;;;;;;5050773;28;20490;-63
2022/02/06 09:19:23;;;;;;;4.20;1.30;;;7.60;99.90;;;;;;5049840;28;20542;-64
2022/02/06 09:21:50;;;;;;;5.33;2.13;;;7.60;99.90;;;;;;5050613;28;20867;-64
2022/02/06 09:24:17;;;;;;;3.03;1.47;;;7.60;99.90;;;;;;5050314;28;20455;-63
2022/02/06 09:26:44;;;;;;;3.50;1.47;;;7.60;99.90;;;;;;5049393;28;20476;-63
2022/02/06 09:29:11;;;;;;;4.10;1.57;;;7.70;99.90;;;;;;5037147;28;20464;-64
2022/02/06 09:31:38;;;;;;;4.93;1.40;;;7.60;99.90;;;;;;5045813;28;20460;-63
2022/02/06 09:36:35;;;;;;;5.20;2.00;;;7.50;99.90;;;;;;5049744;28;21154;-63
2022/02/06 09:39:03;;;;;;;5.53;1.40;;;7.60;99.90;;;;;;5048421;28;20933;-65
2022/02/06 09:41:30;;;;;;;5.87;1.60;;;7.70;99.90;;;;;;5047597;28;20479;-63
2022/02/06 09:43:59;;;;;;;3.83;1.90;;;7.60;99.90;;;;;;5047882;28;20472;-63
2022/02/06 09:46:27;;;;;;;5.63;1.93;;;7.60;99.90;;;;;;5048713;28;20472;-63
2022/02/06 09:48:58;;;;;;;5.03;1.77;;;7.70;99.90;;;;;;5039307;28;20452;-63
2022/02/06 09:51:27;;;;;;;7.07;1.97;;;7.80;99.90;;;;;;5041100;28;20820;-67
2022/02/06 09:53:55;;;;;;;4.93;1.57;;;7.80;99.90;;;;;;5046615;28;20986;-64
2022/02/06 09:56:23;;;;;;;4.47;1.80;;;7.90;99.90;;;;;;5044469;28;20482;-62
2022/02/06 09:59:01;;;;;;;3.70;1.77;;;7.90;99.90;;;;;;5045779;28;20475;-64
2022/02/06 10:01:29;;;;;;;3.60;2.40;;;8.00;99.90;;;;;;5059293;28;20933;-63
2022/02/06 10:04:05;;;;;;;2.77;1.27;;;8.10;99.90;;;;;;5056624;28;20462;-63
2022/02/06 10:06:46;;;;;;;3.37;1.47;;;8.20;99.90;;;;;;5058551;28;20570;-63
2022/02/06 10:09:17;;;;;;;7.00;2.00;;;8.30;99.90;;;;;;5059631;28;20447;-63
2022/02/06 10:11:48;;;;;;;8.53;2.33;;;8.30;99.90;;;;;;5061603;28;20451;-63
2022/02/06 10:14:15;;;;;;;4.33;1.77;;;8.30;99.90;;;;;;5061788;28;20463;-65
2022/02/06 10:16:42;;;;;;;2.50;1.67;;;8.40;99.90;;;;;;5057247;28;20531;-62
2022/02/06 10:19:09;;;;;;;2.73;1.40;;;8.40;99.90;;;;;;5058829;28;20455;-63
2022/02/06 10:21:37;;;;;;;4.70;1.67;;;8.40;99.90;;;;;;5059066;28;20454;-68
2022/02/06 10:24:13;;;;;;;3.50;1.63;;;8.30;99.90;;;;;;5060689;28;21307;-63
2022/02/06 10:26:45;;;;;;;8.60;1.90;;;8.20;99.90;;;;;;5061340;28;21062;-63
2022/02/06 10:29:37;;;;;;;3.27;1.10;;;8.20;99.90;;;;;;5052442;28;20471;-64
2022/02/06 10:32:05;;;;;;;2.73;1.13;;;8.20;99.90;;;;;;5060388;28;20443;-64
2022/02/06 10:34:35;;;;;;;3.70;1.30;;;8.40;99.90;;;;;;5053865;28;20515;-63
2022/02/06 10:37:15;;;;;;;3.60;1.67;;;8.50;99.90;;;;;;5054449;28;20448;-63
2022/02/06 10:39:53;;;;;;;3.57;1.40;;;8.60;99.90;;;;;;5058666;28;20880;-63
2022/02/06 10:42:22;;;;;;;2.83;1.60;;;8.70;99.90;;;;;;5061469;28;20483;-64
2022/02/06 10:44:51;;;;;;;3.93;1.40;;;8.80;99.90;;;;;;5058462;28;20634;-64
2022/02/06 10:47:31;;;;;;;3.13;1.33;;;8.90;99.90;;;;;;5057409;28;20546;-62
2022/02/06 10:50:08;;;;;;;3.60;1.10;;;9.00;99.90;;;;;;5058784;28;20447;-63
2022/02/06 10:52:37;;;;;;;2.67;1.20;;;8.90;99.90;;;;;;5060937;28;20443;-63
2022/02/06 10:55:05;;;;;;;5.00;1.40;;;8.80;99.90;;;;;;5062119;28;20470;-64
2022/02/06 10:57:32;;;;;;;7.23;2.07;;;8.80;99.90;;;;;;5062461;28;20680;-63
2022/02/06 11:00:00;;;;;;;6.43;1.60;;;9.00;99.90;;;;;;5060224;28;20535;-63
2022/02/06 11:02:29;;;;;;;2.97;1.30;;;9.20;99.90;;;;;;5062487;28;20529;-64
2022/02/06 11:04:58;;;;;;;5.33;1.60;;;9.20;99.90;;;;;;5057798;28;20475;-64
2022/02/06 11:07:25;;;;;;;3.50;1.63;;;9.20;99.90;;;;;;5057151;28;20483;-65
2022/02/06 11:10:06;;;;;;;2.60;1.33;;;9.00;99.90;;;;;;5054960;28;20445;-63
2022/02/06 11:12:34;;;;;;;1.93;1.00;;;9.00;99.90;;;;;;5059911;28;20447;-61
2022/02/06 11:15:03;;;;;;;4.30;1.17;;;9.00;99.90;;;;;;5062736;28;20463;-64
2022/02/06 11:17:34;;;;;;;2.90;1.30;;;8.90;99.90;;;;;;5062711;28;20443;-64
2022/02/06 11:20:04;;;;;;;3.23;1.30;;;9.00;99.90;;;;;;5057030;28;20444;-65
2022/02/06 11:22:33;;;;;;;3.20;1.30;;;9.00;99.90;;;;;;5057198;28;20436;-66
2022/02/06 11:25:04;;;;;;;2.70;1.53;;;9.00;99.90;;;;;;5060267;28;20466;-65
2022/02/06 11:27:32;;;;;;;3.50;1.37;;;9.00;99.90;;;;;;5062062;28;20568;-64
2022/02/06 11:29:59;;;;;;;4.23;1.30;;;8.80;99.90;;;;;;5060702;28;20458;-65
2022/02/06 11:32:27;;;;;;;1.80;0.93;;;8.80;99.90;;;;;;5060853;28;20474;-65
2022/02/06 11:34:56;;;;;;;2.63;1.30;;;8.80;99.90;;;;;;5062134;28;20532;-65
2022/02/06 11:46:14;;;;;;;4.70;1.50;;;8.90;99.90;;;;;;5054168;28;20940;-65
2022/02/06 11:48:44;;;;;;;4.83;1.57;;;8.90;99.90;;;;;;5053583;28;20506;-65
2022/02/06 11:51:16;;;;;;;4.37;1.80;;;9.00;99.90;;;;;;5057220;28;20539;-66
2022/02/06 11:53:44;;;;;;;4.83;1.50;;;9.00;99.90;;;;;;5058381;28;20469;-66
2022/02/06 11:56:34;;;;;;;5.70;1.43;;;8.90;99.90;;;;;;5062675;28;20505;-66
2022/02/06 11:59:07;;;;;;;3.07;1.57;;;8.90;99.90;;;;;;5061374;28;20436;-63
2022/02/06 12:01:34;;;;;;;3.33;1.50;;;9.00;99.90;;;;;;5061944;28;20439;-65
2022/02/06 12:04:04;;;;;;;3.30;1.70;;;9.00;99.90;;;;;;5056212;28;20551;-66
2022/02/06 12:06:51;;;;;;;5.07;1.17;;;9.00;99.90;;;;;;5058893;28;20940;-66
2022/02/06 12:09:21;;;;;;;3.33;1.00;;;9.00;99.90;;;;;;5064700;28;20439;-66
2022/02/06 12:12:12;;;;;;;3.40;1.30;;;9.20;99.90;;;;;;5058382;28;20459;-67
2022/02/06 12:14:44;;;;;;;2.77;1.87;;;9.20;99.90;;;;;;5061453;28;20498;-65
2022/02/06 12:17:20;;;;;;;2.03;1.10;;;9.10;99.90;;;;;;5051650;28;20816;-64
2022/02/06 12:20:07;;;;;;;3.60;0.80;;;9.10;99.90;;;;;;5052890;28;20450;-65
2022/02/06 12:22:39;;;;;;;3.20;1.30;;;9.20;99.90;;;;;;5054802;28;20809;-64
2022/02/06 12:25:22;;;;;;;2.00;0.80;;;9.30;99.90;;;;;;5060388;28;20612;-64
2022/02/06 12:27:51;;;;;;;2.90;0.93;;;9.40;99.90;;;;;;5049464;28;20486;-64
2022/02/06 12:30:24;;;;;;;3.73;0.87;;;9.50;99.90;;;;;;5057828;28;20451;-63
2022/02/06 12:32:52;;;;;;;2.80;1.13;;;9.40;99.90;;;;;;5059654;28;20447;-65
2022/02/06 12:38:08;;;;;;;2.37;0.93;;;9.40;99.90;;;;;;5065912;28;20446;-64
2022/02/06 12:40:35;;;;;;;2.77;1.03;;;9.40;99.90;;;;;;5064297;28;20493;-64
2022/02/06 12:43:05;;;;;;;9.50;3.00;;;9.50;99.90;;;;;;5065620;28;20443;-66
2022/02/06 12:45:33;;;;;;;2.50;1.00;;;9.60;99.90;;;;;;5067711;28;20439;-65
2022/02/06 12:48:02;;;;;;;3.83;1.10;;;9.50;99.90;;;;;;5055070;28;20492;-65
2022/02/06 12:50:31;;;;;;;2.27;0.80;;;9.50;99.90;;;;;;5049937;28;20456;-66
2022/02/06 12:52:59;;;;;;;1.90;0.90;;;9.40;99.90;;;;;;5059213;28;20473;-66
2022/02/06 12:55:30;;;;;;;1.50;0.80;;;9.30;99.90;;;;;;5059985;28;20440;-65
2022/02/06 12:57:58;;;;;;;3.17;1.00;;;9.20;99.90;;;;;;5061807;28;20475;-66
2022/02/06 13:00:35;;;;;;;7.03;1.40;;;9.10;99.90;;;;;;5061034;28;20455;-65
2022/02/06 13:03:28;;;;;;;2.13;1.00;;;9.10;99.90;;;;;;5062708;28;20458;-64
2022/02/06 13:06:01;;;;;;;5.67;1.03;;;9.10;99.90;;;;;;5056708;28;20447;-64
2022/02/06 13:08:28;;;;;;;2.53;0.87;;;9.00;99.90;;;;;;5061390;28;20487;-64
2022/02/06 13:11:00;;;;;;;2.03;0.73;;;9.00;99.90;;;;;;5061416;28;20471;-65
2022/02/06 13:13:34;;;;;;;2.50;1.10;;;9.00;99.90;;;;;;5064929;28;20459;-65
2022/02/06 13:16:15;;;;;;;2.57;1.30;;;8.90;99.90;;;;;;5063885;28;20995;-65
2022/02/06 13:19:06;;;;;;;3.30;0.90;;;8.80;99.90;;;;;;5059002;28;20443;-63
2022/02/06 13:21:45;;;;;;;2.47;0.80;;;8.80;99.90;;;;;;5058970;28;20457;-64
2022/02/06 13:24:22;;;;;;;3.10;1.00;;;8.70;99.90;;;;;;5060300;28;20470;-63
2022/02/06 13:27:05;;;;;;;2.30;1.10;;;8.70;99.90;;;;;;5059976;28;20460;-61
2022/02/06 13:29:41;;;;;;;2.17;0.80;;;8.60;99.90;;;;;;5059535;28;20487;-63
2022/02/06 13:32:27;;;;;;;1.90;0.77;;;8.60;99.90;;;;;;5062819;28;20524;-63
2022/02/06 13:35:10;;;;;;;2.00;1.33;;;8.50;99.90;;;;;;5055916;28;21226;-67
2022/02/06 13:37:45;;;;;;;3.07;0.80;;;8.40;99.90;;;;;;5059708;28;20474;-68
2022/02/06 13:40:18;;;;;;;1.97;0.80;;;8.30;99.90;;;;;;5058162;28;20452;-65
2022/02/06 13:42:58;;;;;;;2.77;1.30;;;8.30;99.90;;;;;;5055530;28;20490;-66
2022/02/06 13:45:27;;;;;;;1.90;0.90;;;8.20;99.90;;;;;;5053229;28;20478;-65
2022/02/06 13:47:57;;;;;;;2.07;0.80;;;8.10;99.90;;;;;;5051778;28;20925;-65
2022/02/06 13:50:25;;;;;;;1.70;0.70;;;8.00;99.90;;;;;;5053504;28;21022;-65
2022/02/06 13:53:08;;;;;;;2.30;0.60;;;7.90;99.90;;;;;;5047505;28;20820;-65
2022/02/06 13:55:44;;;;;;;3.30;0.60;;;7.80;99.90;;;;;;5055514;28;20452;-65
2022/02/06 13:58:14;;;;;;;2.70;0.70;;;7.70;99.90;;;;;;5056665;28;20446;-65
2022/02/06 14:00:53;;;;;;;2.83;1.07;;;7.70;99.90;;;;;;5053482;28;20544;-66
2022/02/06 14:03:22;;;;;;;2.13;0.80;;;7.60;99.90;;;;;;5051805;28;20571;-66
2022/02/06 14:05:50;;;;;;;2.37;0.63;;;7.60;99.90;;;;;;5056963;28;20457;-67
2022/02/06 14:08:18;;;;;;;1.70;0.80;;;7.50;99.90;;;;;;5056379;28;20483;-66
2022/02/06 14:10:50;;;;;;;1.97;0.80;;;7.40;99.90;;;;;;5061746;28;20455;-64
2022/02/06 14:13:23;;;;;;;1.83;0.80;;;7.40;99.90;;;;;;5058458;28;20944;-66
2022/02/06 14:15:51;;;;;;;2.47;0.80;;;7.30;99.90;;;;;;5060953;28;20435;-66
2022/02/06 14:18:18;;;;;;;2.43;0.73;;;7.20;99.90;;;;;;5058757;28;20824;-65
2022/02/06 14:20:57;;;;;;;2.63;0.90;;;7.20;99.90;;;;;;5056362;28;20534;-66
2022/02/06 14:23:24;;;;;;;2.33;0.70;;;7.20;99.90;;;;;;5056354;28;20463;-65
2022/02/06 14:25:51;;;;;;;2.33;0.90;;;7.10;99.90;;;;;;5061131;28;20441;-64
2022/02/06 14:28:20;;;;;;;3.60;0.83;;;7.10;99.90;;;;;;5058464;28;20515;-65
2022/02/06 14:30:47;;;;;;;3.40;0.93;;;7.00;99.90;;;;;;5060620;28;21079;-64
2022/02/06 14:33:21;;;;;;;2.00;0.90;;;7.00;99.90;;;;;;5062347;28;20439;-66
2022/02/06 14:35:52;;;;;;;1.60;0.70;;;7.00;99.90;;;;;;5056221;28;20869;-64
2022/02/06 14:38:27;;;;;;;1.60;0.90;;;6.90;99.90;;;;;;5056768;28;20466;-66
2022/02/06 14:41:18;;;;;;;3.43;0.90;;;6.90;99.90;;;;;;5059793;28;20467;-65
2022/02/06 14:43:47;;;;;;;1.90;1.00;;;6.90;99.90;;;;;;5062825;28;20467;-66
2022/02/06 14:46:14;;;;;;;1.77;0.70;;;6.80;99.90;;;;;;5059615;28;20492;-65